createdAt,value
2022-11-30T00:01:19.816Z,99276.25
2022-11-30T00:03:49.962Z,99270.97
2022-11-30T00:06:23.446Z,99268.31
2022-11-30T00:08:59.383Z,99269.16
2022-11-30T00:11:30.990Z,99266.53
2022-11-30T00:13:57.613Z,99274.31
2022-11-30T00:16:26.895Z,99272.56
2022-11-30T00:18:53.429Z,99270.94
2022-11-30T00:21:20.000Z,99269.16
2022-11-30T00:23:49.128Z,99266.44
2022-11-30T00:26:19.265Z,99268.19
2022-11-30T00:28:47.496Z,99266.44
2022-11-30T00:31:16.204Z,99268.97
2022-11-30T00:33:43.011Z,99266.44
2022-11-30T00:36:18.398Z,99271.66
2022-11-30T00:38:45.678Z,99271.66
2022-11-30T00:41:12.693Z,99272.59
2022-11-30T00:43:39.367Z,99269.19
2022-11-30T00:46:06.588Z,99268.13
2022-11-30T00:48:33.170Z,99269.81
2022-11-30T00:50:59.738Z,99269.81
2022-11-30T00:53:26.783Z,99270.75
2022-11-30T00:55:56.942Z,99273.38
2022-11-30T00:58:23.450Z,99266.38
2022-11-30T01:00:50.167Z,99267.13
2022-11-30T01:03:23.073Z,99275.88
2022-11-30T01:05:49.585Z,99280.22
2022-11-30T01:08:16.213Z,99266.44
2022-11-30T01:10:44.409Z,99271.63
2022-11-30T01:13:14.389Z,99269.91
2022-11-30T01:15:43.952Z,99264.56
2022-11-30T01:18:14.156Z,99268.97
2022-11-30T01:20:44.804Z,99269.00
2022-11-30T01:23:11.795Z,99274.25
2022-11-30T01:25:38.881Z,99264.63
2022-11-30T01:28:05.822Z,99268.91
2022-11-30T01:30:32.555Z,99274.09
2022-11-30T01:33:06.588Z,99282.00
2022-11-30T01:35:33.089Z,99273.09
2022-11-30T01:38:03.115Z,99273.22
2022-11-30T01:40:29.635Z,99282.91
2022-11-30T01:42:56.104Z,99282.84
2022-11-30T01:45:22.760Z,99281.84
2022-11-30T01:47:53.508Z,99282.81
2022-11-30T01:50:30.659Z,99283.50
2022-11-30T01:52:58.045Z,99283.50
2022-11-30T01:55:27.671Z,99291.34
2022-11-30T01:58:02.359Z,99291.38
2022-11-30T02:00:29.196Z,99294.00
2022-11-30T02:03:00.437Z,99288.75
2022-11-30T02:05:27.580Z,99289.66
2022-11-30T02:07:54.490Z,99287.75
2022-11-30T02:10:30.130Z,99283.44
2022-11-30T02:13:13.972Z,99277.44
2022-11-30T02:15:55.711Z,99287.06
2022-11-30T02:18:46.259Z,99283.59
2022-11-30T02:21:38.368Z,99278.34
2022-11-30T02:24:20.659Z,99286.25
2022-11-30T02:26:47.139Z,99271.25
2022-11-30T02:29:21.372Z,99282.50
2022-11-30T02:31:50.868Z,99279.16
2022-11-30T02:34:21.181Z,99273.94
2022-11-30T02:36:48.500Z,99273.94
2022-11-30T02:39:15.060Z,99269.63
2022-11-30T02:41:44.059Z,99261.72
2022-11-30T02:44:11.911Z,99273.28
2022-11-30T02:46:53.007Z,99260.00
2022-11-30T02:49:30.515Z,99271.38
2022-11-30T02:51:58.542Z,99262.72
2022-11-30T02:54:25.180Z,99268.91
2022-11-30T02:56:52.026Z,99267.84
2022-11-30T02:59:19.200Z,99267.00
2022-11-30T03:01:45.728Z,99267.97
2022-11-30T03:04:12.286Z,99270.41
2022-11-30T03:06:38.759Z,99271.25
2022-11-30T03:09:05.421Z,99280.75
2022-11-30T03:11:35.278Z,99282.41
2022-11-30T03:14:01.864Z,99286.97
2022-11-30T03:16:31.542Z,99286.03
2022-11-30T03:18:58.847Z,99287.84
2022-11-30T03:21:25.744Z,99300.88
2022-11-30T03:23:55.480Z,99299.97
2022-11-30T03:26:22.106Z,99302.63
2022-11-30T03:28:48.595Z,99299.16
2022-11-30T03:31:15.217Z,99300.06
2022-11-30T03:33:44.650Z,99300.94
2022-11-30T03:36:12.357Z,99294.72
2022-11-30T03:38:39.590Z,99299.16
2022-11-30T03:41:12.711Z,99292.31
2022-11-30T03:43:39.163Z,99285.38
2022-11-30T03:46:06.331Z,99287.06
2022-11-30T03:48:34.969Z,99293.00
2022-11-30T03:51:02.402Z,99294.00
2022-11-30T03:53:28.869Z,99303.59
2022-11-30T03:55:59.883Z,99301.03
2022-11-30T03:58:32.749Z,99294.78
2022-11-30T04:01:03.339Z,99300.06
2022-11-30T04:03:30.687Z,99298.97
2022-11-30T04:05:58.493Z,99310.38
2022-11-30T04:08:28.069Z,99305.97
2022-11-30T04:10:56.390Z,99304.75
2022-11-30T04:13:23.907Z,99308.53
2022-11-30T04:15:54.421Z,99306.97
2022-11-30T04:18:24.044Z,99313.00
2022-11-30T04:20:52.371Z,99314.00
2022-11-30T04:23:19.337Z,99309.66
2022-11-30T04:25:47.929Z,99302.63
2022-11-30T04:28:20.223Z,99312.25
2022-11-30T04:30:47.314Z,99307.97
2022-11-30T04:33:15.758Z,99310.63
2022-11-30T04:35:48.373Z,99308.94
2022-11-30T04:38:14.877Z,99301.94
2022-11-30T04:40:42.917Z,99315.91
2022-11-30T04:43:10.087Z,99309.94
2022-11-30T04:45:36.978Z,99302.13
2022-11-30T04:48:06.034Z,99308.19
2022-11-30T04:50:32.691Z,99309.97
2022-11-30T04:52:59.385Z,99311.69
2022-11-30T04:55:26.332Z,99312.59
2022-11-30T04:57:53.262Z,99320.34
2022-11-30T05:00:20.468Z,99315.09
2022-11-30T05:02:52.523Z,99320.41
2022-11-30T05:05:19.668Z,99320.50
2022-11-30T05:07:50.881Z,99324.88
2022-11-30T05:10:20.267Z,99325.69
2022-11-30T05:12:46.745Z,99325.75
2022-11-30T05:15:13.209Z,99325.75
2022-11-30T05:17:39.757Z,99330.13
2022-11-30T05:20:10.250Z,99329.22
2022-11-30T05:22:39.605Z,99327.28
2022-11-30T05:25:07.100Z,99330.78
2022-11-30T05:27:33.737Z,99330.72
2022-11-30T05:30:00.225Z,99334.38
2022-11-30T05:32:26.881Z,99336.16
2022-11-30T05:34:53.974Z,99334.41
2022-11-30T05:37:26.224Z,99337.03
2022-11-30T05:39:52.732Z,99337.03
2022-11-30T05:42:22.609Z,99341.41
2022-11-30T05:44:51.179Z,99339.69
2022-11-30T05:47:17.988Z,99342.31
2022-11-30T05:49:44.762Z,99343.06
2022-11-30T05:52:11.515Z,99342.16
2022-11-30T05:54:39.491Z,99344.66
2022-11-30T05:57:05.959Z,99348.13
2022-11-30T05:59:32.609Z,99351.69
2022-11-30T06:01:59.226Z,99353.53
2022-11-30T06:04:25.960Z,99355.34
2022-11-30T06:06:55.502Z,99348.31
2022-11-30T06:09:22.679Z,99356.28
2022-11-30T06:11:49.183Z,99356.28
2022-11-30T06:14:15.661Z,99357.13
2022-11-30T06:16:42.186Z,99361.53
2022-11-30T06:19:08.769Z,99367.63
2022-11-30T06:21:35.242Z,99357.22
2022-11-30T06:24:03.469Z,99364.22
2022-11-30T06:26:30.057Z,99367.72
2022-11-30T06:28:56.522Z,99366.09
2022-11-30T06:31:23.103Z,99365.13
2022-11-30T06:33:49.692Z,99366.78
2022-11-30T06:36:22.378Z,99364.16
2022-11-30T06:38:49.029Z,99368.50
2022-11-30T06:41:15.633Z,99372.78
2022-11-30T06:43:45.234Z,99369.97
2022-11-30T06:46:11.809Z,99378.09
2022-11-30T06:48:39.011Z,99388.69
2022-11-30T06:51:07.353Z,99381.66
2022-11-30T06:53:34.466Z,99383.34
2022-11-30T06:56:10.364Z,99386.84
2022-11-30T06:58:39.142Z,99384.22
2022-11-30T07:01:07.956Z,99386.63
2022-11-30T07:03:36.562Z,99385.84
2022-11-30T07:06:08.082Z,99393.84
2022-11-30T07:08:34.784Z,99408.88
2022-11-30T07:11:01.319Z,99396.63
2022-11-30T07:13:29.751Z,99404.38
2022-11-30T07:15:58.959Z,99414.84
2022-11-30T07:18:31.455Z,99407.84
2022-11-30T07:21:00.725Z,99405.25
2022-11-30T07:23:49.489Z,99414.97
2022-11-30T07:26:19.966Z,99403.59
2022-11-30T07:28:49.818Z,99415.78
2022-11-30T07:31:18.818Z,99414.97
2022-11-30T07:33:46.543Z,99417.59
2022-11-30T07:36:13.413Z,99416.75
2022-11-30T07:38:42.968Z,99418.69
2022-11-30T07:41:09.796Z,99415.91
2022-11-30T07:43:36.297Z,99418.53
2022-11-30T07:46:03.841Z,99420.28
2022-11-30T07:48:30.556Z,99422.03
2022-11-30T07:51:10.095Z,99426.44
2022-11-30T07:53:39.327Z,99421.16
2022-11-30T07:56:08.989Z,99427.25
2022-11-30T07:58:35.781Z,99428.19
2022-11-30T08:01:07.665Z,99429.03
2022-11-30T08:03:38.905Z,99428.94
2022-11-30T08:06:07.339Z,99433.38
2022-11-30T08:08:36.534Z,99422.09
2022-11-30T08:11:04.570Z,99430.03
2022-11-30T08:13:31.303Z,99431.84
2022-11-30T08:16:20.970Z,99431.81
2022-11-30T08:18:47.802Z,99433.38
2022-11-30T08:21:16.837Z,99431.69
2022-11-30T08:23:45.966Z,99435.19
2022-11-30T08:26:20.576Z,99436.91
2022-11-30T08:28:49.095Z,99441.28
2022-11-30T08:31:19.164Z,99437.22
2022-11-30T08:33:46.269Z,99443.22
2022-11-30T08:36:13.746Z,99438.88
2022-11-30T08:38:42.155Z,99439.78
2022-11-30T08:41:10.315Z,99441.53
2022-11-30T08:43:36.828Z,99448.44
2022-11-30T08:46:27.522Z,99444.06
2022-11-30T08:49:07.357Z,99451.91
2022-11-30T08:52:14.701Z,99454.47
2022-11-30T08:54:27.416Z,99457.91
2022-11-30T08:56:56.908Z,99455.50
2022-11-30T08:59:23.403Z,99460.75
2022-11-30T09:01:49.879Z,99459.91
2022-11-30T09:04:19.490Z,99466.03
2022-11-30T09:06:46.023Z,99474.09
2022-11-30T09:09:12.547Z,99463.59
2022-11-30T09:11:39.078Z,99462.72
2022-11-30T09:14:06.658Z,99463.50
2022-11-30T09:16:33.726Z,99458.34
2022-11-30T09:19:03.041Z,99467.25
2022-11-30T09:21:29.681Z,99472.44
2022-11-30T09:23:56.711Z,99471.72
2022-11-30T09:26:25.219Z,99470.06
2022-11-30T09:28:53.361Z,99473.56
2022-11-30T09:31:27.625Z,99474.50
2022-11-30T09:33:58.866Z,99478.81
2022-11-30T09:36:27.288Z,99476.19
2022-11-30T09:38:55.126Z,99473.50
2022-11-30T09:41:24.212Z,99474.50
2022-11-30T09:43:56.476Z,99476.28
2022-11-30T09:46:39.819Z,99480.63
2022-11-30T09:49:14.144Z,99479.03
2022-11-30T09:51:54.607Z,99464.94
2022-11-30T09:54:39.710Z,99468.44
2022-11-30T09:57:18.374Z,99458.78
2022-11-30T09:59:54.143Z,99461.50
2022-11-30T10:02:22.463Z,99460.63
2022-11-30T10:04:49.740Z,99463.28
2022-11-30T10:07:40.492Z,99459.91
2022-11-30T10:10:33.000Z,99455.44
2022-11-30T10:13:12.395Z,99461.59
2022-11-30T10:16:04.535Z,99466.84
2022-11-30T10:19:07.738Z,99464.13
2022-11-30T10:22:05.199Z,99464.91
2022-11-30T10:25:12.015Z,99470.16
2022-11-30T10:28:12.682Z,99459.78
2022-11-30T10:30:48.979Z,99473.81
2022-11-30T10:33:22.576Z,99470.31
2022-11-30T10:35:56.350Z,99470.16
2022-11-30T10:38:33.810Z,99464.97
2022-11-30T10:41:31.147Z,99468.44
2022-11-30T10:44:04.961Z,99460.66
2022-11-30T10:46:36.536Z,99461.50
2022-11-30T10:49:25.707Z,99471.22
2022-11-30T10:51:57.012Z,99459.06
2022-11-30T10:54:23.786Z,99465.97
2022-11-30T10:56:50.464Z,99458.31
2022-11-30T10:59:26.027Z,99458.31
2022-11-30T11:01:53.488Z,99461.84
2022-11-30T11:04:27.869Z,99461.84
2022-11-30T11:07:15.469Z,99462.09
2022-11-30T11:09:50.358Z,99459.38
2022-11-30T11:12:30.589Z,99462.13
2022-11-30T11:15:26.816Z,99464.81
2022-11-30T11:18:01.951Z,99464.81
2022-11-30T11:20:30.469Z,99467.34
2022-11-30T11:22:57.192Z,99468.25
2022-11-30T11:25:37.398Z,99479.66
2022-11-30T11:28:14.066Z,99475.22
2022-11-30T11:30:42.785Z,99475.16
2022-11-30T11:33:12.247Z,99475.25
2022-11-30T11:35:42.552Z,99477.88
2022-11-30T11:38:28.204Z,99476.19
2022-11-30T11:41:01.197Z,99477.06
2022-11-30T11:43:34.265Z,99475.47
2022-11-30T11:46:13.893Z,99476.38
2022-11-30T11:48:48.721Z,99474.59
2022-11-30T11:51:36.050Z,99476.25
2022-11-30T11:54:15.220Z,99474.47
2022-11-30T11:56:41.829Z,99478.03
2022-11-30T11:59:14.728Z,99482.41
2022-11-30T12:01:47.361Z,99473.63
2022-11-30T12:04:28.936Z,99483.41
2022-11-30T12:06:58.752Z,99482.59
2022-11-30T12:09:34.914Z,99484.31
2022-11-30T12:12:01.726Z,99489.59
2022-11-30T12:14:35.283Z,99486.09
2022-11-30T12:17:16.616Z,99491.44
2022-11-30T12:20:06.499Z,99485.25
2022-11-30T12:22:48.740Z,99487.91
2022-11-30T12:25:28.190Z,99483.41
2022-11-30T12:28:01.380Z,99479.84
2022-11-30T12:30:52.675Z,99492.28
2022-11-30T12:33:25.399Z,99487.91
2022-11-30T12:35:54.938Z,99489.69
2022-11-30T12:38:30.480Z,99492.34
2022-11-30T12:41:12.328Z,99494.06
2022-11-30T12:44:04.657Z,99494.97
2022-11-30T12:46:50.034Z,99499.25
2022-11-30T12:50:01.608Z,99494.13
2022-11-30T12:52:35.884Z,99497.72
2022-11-30T12:55:05.745Z,99498.56
2022-11-30T12:58:00.035Z,99495.94
2022-11-30T13:00:34.458Z,99505.56
2022-11-30T13:03:26.352Z,99499.31
2022-11-30T13:06:00.102Z,99500.19
2022-11-30T13:08:38.093Z,99497.59
2022-11-30T13:11:17.394Z,99501.19
2022-11-30T13:13:50.554Z,99495.81
2022-11-30T13:16:21.258Z,99492.28
2022-11-30T13:18:49.906Z,99494.00
2022-11-30T13:21:21.348Z,99495.75
2022-11-30T13:23:47.810Z,99497.44
2022-11-30T13:26:29.455Z,99496.53
2022-11-30T13:29:20.417Z,99499.09
2022-11-30T13:31:56.162Z,99495.41
2022-11-30T13:34:29.889Z,99502.44
2022-11-30T13:37:10.349Z,99500.66
2022-11-30T13:39:54.589Z,99511.06
2022-11-30T13:42:36.866Z,99503.13
2022-11-30T13:45:12.690Z,99500.50
2022-11-30T13:47:43.351Z,99495.94
2022-11-30T13:50:38.623Z,99503.94
2022-11-30T13:53:17.345Z,99500.41
2022-11-30T13:56:08.061Z,99498.59
2022-11-30T13:58:35.040Z,99500.22
2022-11-30T14:01:21.756Z,99494.19
2022-11-30T14:04:23.347Z,99502.91
2022-11-30T14:06:51.292Z,99505.53
2022-11-30T14:09:40.245Z,99504.69
2022-11-30T14:12:34.521Z,99501.06
2022-11-30T14:15:02.463Z,99508.94
2022-11-30T14:17:35.661Z,99510.72
2022-11-30T14:20:15.345Z,99507.16
2022-11-30T14:22:45.624Z,99521.09
2022-11-30T14:25:15.104Z,99525.63
2022-11-30T14:27:46.500Z,99521.28
2022-11-30T14:30:16.850Z,99516.88
2022-11-30T14:32:51.903Z,99517.66
2022-11-30T14:35:23.147Z,99516.81
2022-11-30T14:37:58.512Z,99520.28
2022-11-30T14:40:29.700Z,99518.38
2022-11-30T14:42:59.245Z,99519.22
2022-11-30T14:45:27.744Z,99521.81
2022-11-30T14:48:11.717Z,99521.91
2022-11-30T14:50:44.213Z,99527.09
2022-11-30T14:53:38.996Z,99533.28
2022-11-30T14:56:24.798Z,99531.34
2022-11-30T14:59:02.060Z,99529.72
2022-11-30T15:01:31.945Z,99524.41
2022-11-30T15:04:14.093Z,99536.59
2022-11-30T15:06:40.811Z,99541.91
2022-11-30T15:09:16.941Z,99539.16
2022-11-30T15:11:46.854Z,99545.22
2022-11-30T15:14:13.915Z,99553.22
2022-11-30T15:16:55.203Z,99540.06
2022-11-30T15:19:26.005Z,99547.84
2022-11-30T15:21:53.657Z,99551.28
2022-11-30T15:24:21.433Z,99557.38
2022-11-30T15:26:56.545Z,99549.28
2022-11-30T15:29:33.550Z,99549.38
2022-11-30T15:32:03.848Z,99545.81
2022-11-30T15:34:40.070Z,99544.94
2022-11-30T15:37:07.687Z,99546.50
2022-11-30T15:39:34.256Z,99541.25
2022-11-30T15:42:02.661Z,99545.69
2022-11-30T15:44:44.146Z,99548.41
2022-11-30T15:47:26.301Z,99545.69
2022-11-30T15:49:54.540Z,99549.22
2022-11-30T15:52:26.033Z,99547.31
2022-11-30T15:54:58.821Z,99543.03
2022-11-30T15:57:46.203Z,99541.09
2022-11-30T16:00:15.690Z,99548.94
2022-11-30T16:02:42.922Z,99549.84
2022-11-30T16:05:14.847Z,99559.41
2022-11-30T16:07:48.765Z,99565.63
2022-11-30T16:10:35.471Z,99563.94
2022-11-30T16:13:02.363Z,99562.16
2022-11-30T16:15:35.027Z,99554.19
2022-11-30T16:18:07.471Z,99561.94
2022-11-30T16:20:34.287Z,99571.50
2022-11-30T16:23:05.478Z,99567.84
2022-11-30T16:25:32.385Z,99568.88
2022-11-30T16:28:02.855Z,99571.53
2022-11-30T16:30:30.337Z,99579.22
2022-11-30T16:32:57.072Z,99579.06
2022-11-30T16:35:30.276Z,99578.16
2022-11-30T16:37:56.769Z,99580.66
2022-11-30T16:40:23.253Z,99583.28
2022-11-30T16:42:53.405Z,99584.16
2022-11-30T16:45:23.173Z,99592.03
2022-11-30T16:47:54.580Z,99589.22
2022-11-30T16:50:23.502Z,99591.66
2022-11-30T16:52:51.695Z,99601.22
2022-11-30T16:55:22.975Z,99595.22
2022-11-30T16:57:49.775Z,99592.41
2022-11-30T17:00:19.237Z,99598.50
2022-11-30T17:03:09.285Z,99601.00
2022-11-30T17:05:37.255Z,99597.44
2022-11-30T17:08:04.038Z,99610.41
2022-11-30T17:10:30.615Z,99610.44
2022-11-30T17:12:57.124Z,99606.06
2022-11-30T17:15:24.676Z,99609.59
2022-11-30T17:17:51.460Z,99605.94
2022-11-30T17:20:18.529Z,99605.94
2022-11-30T17:22:45.464Z,99609.50
2022-11-30T17:25:16.176Z,99608.63
2022-11-30T17:27:44.759Z,99617.53
2022-11-30T17:30:13.229Z,99623.59
2022-11-30T17:32:39.696Z,99617.28
2022-11-30T17:35:06.609Z,99626.88
2022-11-30T17:37:33.110Z,99624.13
2022-11-30T17:39:59.591Z,99629.38
2022-11-30T17:42:26.059Z,99625.69
2022-11-30T17:44:52.886Z,99623.13
2022-11-30T17:47:19.453Z,99632.69
2022-11-30T17:49:45.906Z,99636.97
2022-11-30T17:52:15.291Z,99635.06
2022-11-30T17:54:42.159Z,99638.28
2022-11-30T17:57:08.683Z,99636.75
2022-11-30T17:59:38.499Z,99633.97
2022-11-30T18:02:05.186Z,99636.75
2022-11-30T18:04:34.995Z,99641.97
2022-11-30T18:07:01.476Z,99640.31
2022-11-30T18:09:27.990Z,99643.66
2022-11-30T18:11:54.679Z,99646.28
2022-11-30T18:14:21.166Z,99643.63
2022-11-30T18:16:47.826Z,99650.47
2022-11-30T18:19:15.454Z,99652.25
2022-11-30T18:21:48.201Z,99653.91
2022-11-30T18:24:14.759Z,99648.56
2022-11-30T18:26:44.108Z,99648.66
2022-11-30T18:29:11.016Z,99647.91
2022-11-30T18:31:37.625Z,99656.59
2022-11-30T18:34:06.446Z,99660.03
2022-11-30T18:36:33.971Z,99653.00
2022-11-30T18:39:00.757Z,99656.44
2022-11-30T18:41:30.506Z,99658.06
2022-11-30T18:43:57.984Z,99665.16
2022-11-30T18:46:27.887Z,99667.75
2022-11-30T18:48:54.732Z,99660.81
2022-11-30T18:51:24.257Z,99660.56
2022-11-30T18:53:57.697Z,99668.28
2022-11-30T18:56:28.606Z,99667.63
2022-11-30T18:58:57.755Z,99665.06
2022-11-30T19:01:28.479Z,99660.81
2022-11-30T19:04:00.446Z,99664.38
2022-11-30T19:06:29.477Z,99670.50
2022-11-30T19:08:57.427Z,99665.13
2022-11-30T19:11:24.643Z,99669.56
2022-11-30T19:13:58.633Z,99674.66
2022-11-30T19:16:26.860Z,99669.47
2022-11-30T19:18:54.375Z,99671.09
2022-11-30T19:21:22.424Z,99678.84
2022-11-30T19:23:49.848Z,99675.25
2022-11-30T19:26:16.567Z,99675.50
2022-11-30T19:28:46.713Z,99686.81
2022-11-30T19:31:16.238Z,99676.22
2022-11-30T19:33:45.327Z,99691.81
2022-11-30T19:36:20.455Z,99680.53
2022-11-30T19:38:47.675Z,99683.13
2022-11-30T19:41:15.538Z,99689.38
2022-11-30T19:43:47.832Z,99698.19
2022-11-30T19:46:22.011Z,99691.94
2022-11-30T19:48:48.667Z,99699.97
2022-11-30T19:51:18.623Z,99702.59
2022-11-30T19:53:46.012Z,99707.81
2022-11-30T19:56:17.463Z,99705.31
2022-11-30T19:58:45.597Z,99706.19
2022-11-30T20:01:17.034Z,99701.59
2022-11-30T20:03:44.443Z,99714.69
2022-11-30T20:06:14.579Z,99710.19
2022-11-30T20:08:41.530Z,99706.00
2022-11-30T20:11:09.844Z,99710.34
2022-11-30T20:13:36.811Z,99709.59
2022-11-30T20:16:13.871Z,99720.97
2022-11-30T20:18:45.782Z,99718.34
2022-11-30T20:21:24.087Z,99714.06
2022-11-30T20:23:51.916Z,99721.97
2022-11-30T20:26:21.642Z,99713.94
2022-11-30T20:28:49.859Z,99709.56
2022-11-30T20:31:19.075Z,99714.69
2022-11-30T20:33:45.984Z,99716.47
2022-11-30T20:36:13.762Z,99720.69
2022-11-30T20:38:40.298Z,99714.34
2022-11-30T20:41:11.234Z,99709.31
2022-11-30T20:43:38.866Z,99710.28
2022-11-30T20:46:26.650Z,99713.59
2022-11-30T20:48:55.379Z,99721.47
2022-11-30T20:51:31.379Z,99714.22
2022-11-30T20:54:05.570Z,99716.00
2022-11-30T20:56:33.412Z,99721.09
2022-11-30T20:59:08.364Z,99716.00
2022-11-30T21:01:35.101Z,99725.66
2022-11-30T21:04:01.735Z,99714.50
2022-11-30T21:06:29.745Z,99719.69
2022-11-30T21:08:56.931Z,99714.22
2022-11-30T21:11:23.721Z,99721.34
2022-11-30T21:13:54.382Z,99722.00
2022-11-30T21:16:27.551Z,99722.66
2022-11-30T21:18:58.067Z,99724.41
2022-11-30T21:21:26.292Z,99718.25
2022-11-30T21:23:53.898Z,99729.69
2022-11-30T21:26:21.925Z,99730.41
2022-11-30T21:28:52.812Z,99727.78
2022-11-30T21:31:20.409Z,99726.00
2022-11-30T21:33:52.805Z,99731.25
2022-11-30T21:36:20.516Z,99726.72
2022-11-30T21:38:47.070Z,99728.63
2022-11-30T21:41:14.432Z,99732.25
2022-11-30T21:43:41.930Z,99729.28
2022-11-30T21:46:14.449Z,99723.19
2022-11-30T21:48:46.969Z,99726.00
2022-11-30T21:51:22.476Z,99720.56
2022-11-30T21:53:51.969Z,99718.84
2022-11-30T21:56:24.029Z,99719.00
2022-11-30T21:58:54.161Z,99723.31
2022-11-30T22:01:24.249Z,99729.69
2022-11-30T22:03:56.959Z,99728.13
2022-11-30T22:06:25.257Z,99729.94
2022-11-30T22:08:52.064Z,99728.06
2022-11-30T22:11:22.933Z,99730.88
2022-11-30T22:13:51.194Z,99728.25
2022-11-30T22:16:18.690Z,99726.59
2022-11-30T22:18:46.301Z,99719.75
2022-11-30T22:21:18.273Z,99731.16
2022-11-30T22:23:45.659Z,99728.69
2022-11-30T22:26:19.636Z,99726.97
2022-11-30T22:28:49.480Z,99730.41
2022-11-30T22:31:18.561Z,99732.09
2022-11-30T22:33:46.207Z,99732.78
2022-11-30T22:36:15.599Z,99724.81
2022-11-30T22:38:47.661Z,99728.25
2022-11-30T22:41:16.917Z,99727.31
2022-11-30T22:43:48.000Z,99733.31
2022-11-30T22:46:20.171Z,99727.16
2022-11-30T22:48:47.430Z,99737.53
2022-11-30T22:51:19.584Z,99735.63
2022-11-30T22:53:47.912Z,99730.03
2022-11-30T22:56:23.082Z,99732.75
2022-11-30T22:58:53.889Z,99737.25
2022-11-30T23:01:26.435Z,99732.69
2022-11-30T23:03:56.171Z,99734.44
2022-11-30T23:06:24.222Z,99734.19
2022-11-30T23:08:52.029Z,99729.38
2022-11-30T23:11:25.848Z,99731.09
2022-11-30T23:13:52.885Z,99720.69
2022-11-30T23:16:20.064Z,99722.97
2022-11-30T23:19:00.392Z,99724.66
2022-11-30T23:21:30.250Z,99723.81
2022-11-30T23:23:58.976Z,99716.69
2022-11-30T23:26:34.098Z,99724.13
2022-11-30T23:29:23.460Z,99715.28
2022-11-30T23:31:50.057Z,99721.25
2022-11-30T23:34:22.202Z,99735.31
2022-11-30T23:36:49.026Z,99732.44
2022-11-30T23:39:17.415Z,99719.84
2022-11-30T23:41:44.125Z,99725.09
2022-11-30T23:44:11.300Z,99730.38
2022-11-30T23:46:37.842Z,99727.06
2022-11-30T23:49:08.043Z,99731.88
2022-11-30T23:51:34.519Z,99728.97
2022-11-30T23:54:01.079Z,99733.66
2022-11-30T23:56:27.573Z,99731.34
2022-11-30T23:58:54.037Z,99728.66
